Time;durP1;ratioP1;P1;durP2;ratioP2;P2;SDS_P1;SDS_P2;PMS_P1;PMS_P2;Temp;Humidity;BMP_temperature;BMP_pressure;BME280_temperature;BME280_humidity;BME280_pressure;Samples;Min_cycle;Max_cycle;Signal;HPM_P1;HPM_P2
2023/02/10 00:01:14;;;;;;;18.93;16.57;;;3.70;99.90;;;;;;5033549;28;20203;-65
2023/02/10 00:03:40;;;;;;;21.80;16.53;;;3.70;99.90;;;;;;5033592;28;20183;-65
2023/02/10 00:06:07;;;;;;;21.37;16.97;;;3.80;1.00;;;;;;5033933;28;20179;-64
2023/02/10 00:08:33;;;;;;;19.07;14.07;;;3.80;99.90;;;;;;5033435;28;20211;-65
2023/02/10 00:11:01;;;;;;;22.67;14.43;;;3.90;1.00;;;;;;5033186;28;20615;-65
2023/02/10 00:13:28;;;;;;;24.93;17.87;;;3.90;99.90;;;;;;5033536;28;20225;-65
2023/02/10 00:15:54;;;;;;;31.43;18.80;;;4.00;92.90;;;;;;5033358;28;20183;-65
2023/02/10 00:18:20;;;;;;;18.80;16.67;;;4.00;1.00;;;;;;5033333;28;20570;-64
2023/02/10 00:20:45;;;;;;;20.73;15.93;;;4.00;1.00;;;;;;5032995;28;20180;-65
2023/02/10 00:23:11;;;;;;;25.43;18.77;;;4.00;1.00;;;;;;5033427;28;20242;-64
2023/02/10 00:25:37;;;;;;;26.10;18.87;;;4.00;1.00;;;;;;5033191;28;20280;-66
2023/02/10 00:28:03;;;;;;;20.93;15.67;;;4.00;1.00;;;;;;5033342;28;20565;-65
2023/02/10 00:30:30;;;;;;;19.27;16.27;;;4.00;1.00;;;;;;5032521;28;20202;-65
2023/02/10 00:32:56;;;;;;;33.27;19.20;;;3.90;39.20;;;;;;5033319;28;20283;-64
2023/02/10 00:35:22;;;;;;;21.67;17.47;;;3.90;99.90;;;;;;5033150;28;20637;-66
2023/02/10 00:37:47;;;;;;;30.20;19.17;;;4.00;99.90;;;;;;5032541;28;20175;-66
2023/02/10 00:40:13;;;;;;;24.80;16.67;;;4.00;99.90;;;;;;5032519;28;20266;-66
2023/02/10 00:42:39;;;;;;;18.27;16.10;;;3.90;99.90;;;;;;5032920;28;20222;-66
2023/02/10 00:45:04;;;;;;;21.37;17.77;;;4.00;1.00;;;;;;5032802;28;20649;-65
2023/02/10 00:47:30;;;;;;;19.47;14.63;;;4.00;99.90;;;;;;5032812;28;20218;-65
2023/02/10 00:49:56;;;;;;;23.43;15.37;;;3.90;99.90;;;;;;5032363;28;20184;-65
2023/02/10 00:52:23;;;;;;;25.83;17.23;;;4.00;1.00;;;;;;5032639;28;20200;-65
2023/02/10 00:54:48;;;;;;;22.67;17.00;;;3.90;1.00;;;;;;5032610;28;20183;-64
2023/02/10 00:57:14;;;;;;;19.17;14.00;;;3.90;1.00;;;;;;5032894;28;20262;-64
2023/02/10 00:59:40;;;;;;;22.97;15.93;;;3.80;99.90;;;;;;5031912;28;20184;-64
2023/02/10 01:02:06;;;;;;;22.73;16.10;;;3.80;1.00;;;;;;5032605;28;20261;-65
2023/02/10 01:04:32;;;;;;;20.13;15.57;;;3.70;91.90;;;;;;5032690;28;20186;-65
2023/02/10 01:06:57;;;;;;;21.10;16.97;;;3.70;99.90;;;;;;5032397;28;20238;-64
2023/02/10 01:09:23;;;;;;;22.80;16.70;;;3.70;1.00;;;;;;5032334;28;20546;-64
2023/02/10 01:11:49;;;;;;;31.23;16.80;;;3.70;99.90;;;;;;5032061;28;20195;-65
2023/02/10 01:14:15;;;;;;;19.90;14.27;;;3.60;1.00;;;;;;5032419;28;20659;-64
2023/02/10 01:16:41;;;;;;;27.50;17.23;;;3.60;1.00;;;;;;5032370;28;20195;-64
2023/02/10 01:19:07;;;;;;;29.03;16.60;;;3.60;1.00;;;;;;5032038;28;20211;-65
2023/02/10 01:21:33;;;;;;;20.53;16.07;;;3.60;99.90;;;;;;5032070;28;20221;-64
2023/02/10 01:23:59;;;;;;;20.90;16.80;;;3.60;99.90;;;;;;5032132;28;20278;-65
2023/02/10 01:26:24;;;;;;;22.07;16.33;;;3.70;99.90;;;;;;5031805;28;20255;-65
2023/02/10 01:28:50;;;;;;;31.77;20.73;;;3.70;99.90;;;;;;5031838;28;20215;-65
2023/02/10 01:31:20;;;;;;;26.00;17.17;;;3.70;1.00;;;;;;5031517;28;20710;-65
2023/02/10 01:33:49;;;;;;;25.00;18.20;;;3.70;1.00;;;;;;5031750;28;20233;-65
2023/02/10 01:36:16;;;;;;;20.87;16.73;;;3.80;1.00;;;;;;5031808;28;20657;-66
2023/02/10 01:38:43;;;;;;;19.10;16.83;;;3.80;1.00;;;;;;5031981;28;20412;-65
2023/02/10 01:44:01;;;;;;;28.23;18.23;;;3.90;1.00;;;;;;5047926;28;20206;-63
2023/02/10 01:46:32;;;;;;;25.27;17.87;;;4.00;99.90;;;;;;5051024;28;20202;-63
2023/02/10 01:49:05;;;;;;;31.83;19.17;;;4.00;99.90;;;;;;5050542;28;20199;-64
2023/02/10 01:51:38;;;;;;;24.47;16.53;;;4.00;99.90;;;;;;5049929;28;20611;-64
2023/02/10 01:54:05;;;;;;;20.10;15.10;;;4.10;99.90;;;;;;5051607;28;20167;-63
2023/02/10 01:56:32;;;;;;;30.70;17.23;;;4.10;99.90;;;;;;5050979;28;20183;-63
2023/02/10 01:58:58;;;;;;;25.07;16.60;;;4.10;98.20;;;;;;5051290;28;20217;-63
2023/02/10 02:01:23;;;;;;;18.97;16.93;;;4.10;99.90;;;;;;5050971;28;20586;-63
2023/02/10 02:03:49;;;;;;;26.53;17.57;;;4.10;99.90;;;;;;5051055;28;20214;-64
2023/02/10 02:06:15;;;;;;;21.07;16.90;;;4.20;59.70;;;;;;5051526;28;20174;-62
2023/02/10 02:08:41;;;;;;;29.37;17.47;;;4.20;1.00;;;;;;5051141;28;20701;-63
2023/02/10 02:11:42;;;;;;;23.77;17.87;;;4.20;1.00;;;;;;5051285;28;20174;-63
2023/02/10 02:14:11;;;;;;;20.33;15.83;;;4.30;35.30;;;;;;5051295;28;20224;-63
2023/02/10 02:17:02;;;;;;;22.30;15.43;;;4.30;1.00;;;;;;5051235;28;20223;-63
2023/02/10 02:20:40;;;;;;;30.20;16.80;;;4.30;99.90;;;;;;5050562;28;20186;-63
2023/02/10 02:23:20;;;;;;;22.43;17.20;;;4.30;8.20;;;;;;5050758;28;20296;-63
2023/02/10 02:26:24;;;;;;;19.10;15.37;;;4.30;1.00;;;;;;5051368;28;20209;-63
2023/02/10 02:28:49;;;;;;;25.83;16.67;;;4.20;99.90;;;;;;5050935;28;20213;-63
2023/02/10 02:31:42;;;;;;;39.20;17.93;;;4.20;1.00;;;;;;5050933;28;20561;-63
2023/02/10 02:34:15;;;;;;;28.10;17.77;;;4.20;1.00;;;;;;5051022;28;20177;-63
2023/02/10 02:36:48;;;;;;;24.27;17.50;;;4.20;1.00;;;;;;5049532;28;20175;-63
2023/02/10 02:39:13;;;;;;;17.83;15.87;;;4.10;1.00;;;;;;5050621;28;20179;-63
2023/02/10 02:41:39;;;;;;;20.40;16.30;;;4.10;1.00;;;;;;5050429;28;20541;-64
2023/02/10 02:44:06;;;;;;;20.63;16.50;;;4.00;1.00;;;;;;5051045;28;20171;-63
2023/02/10 02:47:00;;;;;;;22.53;16.80;;;4.00;99.90;;;;;;5050535;28;20203;-63
2023/02/10 02:49:47;;;;;;;20.73;18.63;;;4.00;1.00;;;;;;5031215;28;20735;-63
2023/02/10 02:52:21;;;;;;;22.17;18.80;;;4.00;99.90;;;;;;5035408;28;20191;-63
2023/02/10 02:54:52;;;;;;;25.80;18.70;;;4.00;99.90;;;;;;5051075;28;20174;-63
2023/02/10 02:57:44;;;;;;;23.80;18.00;;;4.00;99.90;;;;;;5050682;28;20229;-63
2023/02/10 03:00:30;;;;;;;20.67;15.60;;;4.00;99.90;;;;;;5052026;28;20179;-64
2023/02/10 03:02:59;;;;;;;31.27;20.07;;;4.00;99.90;;;;;;5054431;28;20194;-64
2023/02/10 03:05:28;;;;;;;28.63;16.20;;;4.00;1.00;;;;;;5054699;28;20183;-63
2023/02/10 03:07:55;;;;;;;25.23;18.20;;;4.00;1.00;;;;;;5053171;28;20281;-63
2023/02/10 03:10:21;;;;;;;27.63;17.80;;;4.00;1.00;;;;;;5054341;28;20179;-64
2023/02/10 03:12:47;;;;;;;22.73;19.17;;;4.00;1.00;;;;;;5054325;28;20210;-63
2023/02/10 03:15:12;;;;;;;21.33;19.13;;;3.90;1.00;;;;;;5054691;28;20264;-63
2023/02/10 03:17:38;;;;;;;27.10;20.13;;;3.90;1.00;;;;;;5054202;28;20171;-63
2023/02/10 03:20:04;;;;;;;30.27;19.17;;;3.90;1.00;;;;;;5054161;28;20201;-63
2023/02/10 03:22:30;;;;;;;22.03;17.97;;;3.90;1.00;;;;;;5053869;28;20285;-63
2023/02/10 03:24:55;;;;;;;23.57;19.57;;;3.80;1.00;;;;;;5054402;28;20617;-63
2023/02/10 03:27:21;;;;;;;21.03;17.53;;;3.80;1.00;;;;;;5053956;28;20199;-63
2023/02/10 03:29:48;;;;;;;20.67;18.57;;;3.70;99.90;;;;;;5054161;28;20173;-63
2023/02/10 03:32:14;;;;;;;23.03;18.67;;;3.70;99.90;;;;;;5054270;28;20648;-63
2023/02/10 03:34:39;;;;;;;25.03;19.47;;;3.60;99.90;;;;;;5053842;28;20265;-63
2023/02/10 03:37:05;;;;;;;28.10;19.47;;;3.50;35.30;;;;;;5054191;28;20182;-63
2023/02/10 03:39:30;;;;;;;30.10;18.83;;;3.40;99.90;;;;;;5053584;28;20228;-63
2023/02/10 03:41:56;;;;;;;23.60;19.60;;;3.40;1.00;;;;;;5053891;28;20199;-63
2023/02/10 03:44:22;;;;;;;27.20;18.17;;;3.30;99.90;;;;;;5053725;28;20179;-63
2023/02/10 03:46:47;;;;;;;23.47;17.10;;;3.20;99.90;;;;;;5054012;28;20167;-63
2023/02/10 03:49:13;;;;;;;24.83;17.97;;;3.20;99.90;;;;;;5053496;28;20221;-63
2023/02/10 03:51:38;;;;;;;28.53;21.80;;;3.20;1.00;;;;;;5053504;28;20195;-63
2023/02/10 03:54:04;;;;;;;29.77;18.30;;;3.10;1.00;;;;;;5053910;28;20175;-63
2023/02/10 03:56:30;;;;;;;28.07;16.20;;;3.10;1.00;;;;;;5053377;28;20197;-64
2023/02/10 03:58:55;;;;;;;29.37;20.27;;;3.00;1.00;;;;;;5053783;28;20667;-64
2023/02/10 04:01:21;;;;;;;26.37;21.77;;;3.00;1.00;;;;;;5053048;28;20175;-64
2023/02/10 04:03:46;;;;;;;21.07;17.13;;;3.00;1.00;;;;;;5053787;28;20163;-63
2023/02/10 04:06:12;;;;;;;22.17;17.07;;;2.90;1.00;;;;;;5053489;28;20217;-63
2023/02/10 04:08:38;;;;;;;24.77;16.37;;;2.80;1.00;;;;;;5053311;28;20585;-64
2023/02/10 04:11:06;;;;;;;27.07;15.87;;;2.70;1.00;;;;;;5052853;28;20207;-63
2023/02/10 04:13:31;;;;;;;28.30;16.63;;;2.70;1.00;;;;;;5053447;28;20221;-64
2023/02/10 04:16:09;;;;;;;21.87;17.17;;;2.70;1.00;;;;;;5053285;28;20648;-63
2023/02/10 04:18:35;;;;;;;20.30;15.97;;;2.60;1.00;;;;;;5053208;28;20189;-64
2023/02/10 04:21:01;;;;;;;21.23;16.30;;;2.50;1.00;;;;;;5052768;28;20183;-64
2023/02/10 04:23:28;;;;;;;16.93;14.73;;;2.40;1.00;;;;;;5053258;28;20198;-64
2023/02/10 04:25:53;;;;;;;23.33;16.10;;;2.20;1.00;;;;;;5053122;28;20232;-64
2023/02/10 04:28:19;;;;;;;24.57;16.90;;;2.20;1.00;;;;;;5053144;28;20668;-64
2023/02/10 04:30:45;;;;;;;19.03;15.67;;;2.10;1.00;;;;;;5052461;28;20179;-64
2023/02/10 04:33:11;;;;;;;20.00;14.87;;;2.00;1.00;;;;;;5053198;28;20187;-64
2023/02/10 04:35:36;;;;;;;16.83;15.20;;;1.90;1.00;;;;;;5052865;28;20167;-64
2023/02/10 04:38:03;;;;;;;16.60;15.07;;;1.90;1.00;;;;;;5053193;28;20174;-64
2023/02/10 04:40:29;;;;;;;21.93;14.73;;;1.70;1.00;;;;;;5052073;28;20197;-63
2023/02/10 04:42:55;;;;;;;26.13;16.57;;;1.70;1.00;;;;;;5052823;28;20207;-64
2023/02/10 04:45:21;;;;;;;19.93;15.97;;;1.60;1.00;;;;;;5052611;28;20727;-64
2023/02/10 04:47:46;;;;;;;20.87;16.30;;;1.50;1.00;;;;;;5052779;28;20206;-64
2023/02/10 04:50:12;;;;;;;21.37;17.83;;;1.40;1.00;;;;;;5052273;28;20181;-64
2023/02/10 04:52:37;;;;;;;18.77;15.63;;;1.40;1.40;;;;;;5052446;28;20205;-64
2023/02/10 04:55:03;;;;;;;19.93;15.17;;;1.40;20.10;;;;;;5052489;28;20175;-64
2023/02/10 04:57:29;;;;;;;23.40;15.37;;;1.30;23.00;;;;;;5052567;28;20702;-64
2023/02/10 04:59:54;;;;;;;16.87;15.07;;;1.30;22.20;;;;;;5052153;28;20186;-64
2023/02/10 05:02:20;;;;;;;17.97;15.77;;;1.20;46.80;;;;;;5052431;28;20252;-63
2023/02/10 05:04:45;;;;;;;21.30;13.83;;;1.30;99.90;;;;;;5052199;28;20179;-64
2023/02/10 05:07:11;;;;;;;22.93;16.70;;;1.30;99.90;;;;;;5052368;28;20663;-64
2023/02/10 05:09:37;;;;;;;23.80;16.40;;;1.30;99.90;;;;;;5051969;28;20171;-64
2023/02/10 05:12:03;;;;;;;22.50;17.70;;;1.30;99.90;;;;;;5052240;28;20273;-64
2023/02/10 05:14:28;;;;;;;17.73;15.57;;;1.20;99.90;;;;;;5051914;28;20262;-64
2023/02/10 05:16:54;;;;;;;21.83;16.73;;;1.20;99.90;;;;;;5052187;28;20536;-63
2023/02/10 05:19:20;;;;;;;21.03;16.73;;;1.10;99.90;;;;;;5051809;28;20205;-64
2023/02/10 05:21:45;;;;;;;18.10;16.30;;;1.20;99.90;;;;;;5052037;28;20203;-64
2023/02/10 05:24:11;;;;;;;19.50;16.53;;;1.20;99.90;;;;;;5051153;28;20202;-64
2023/02/10 05:26:36;;;;;;;21.03;17.03;;;1.20;99.90;;;;;;5051906;28;20174;-64
2023/02/10 05:29:02;;;;;;;18.67;15.83;;;1.20;99.90;;;;;;5051761;28;20285;-64
2023/02/10 05:31:28;;;;;;;20.53;16.53;;;1.10;99.90;;;;;;5051747;28;20474;-64
2023/02/10 05:33:54;;;;;;;20.70;18.27;;;1.10;99.90;;;;;;5051670;28;20179;-64
2023/02/10 05:36:20;;;;;;;19.03;16.93;;;1.10;99.90;;;;;;5052041;28;20170;-64
2023/02/10 05:41:31;;;;;;;19.43;15.70;;;1.00;99.90;;;;;;5052120;28;20206;-64
2023/02/10 05:43:56;;;;;;;21.43;17.00;;;0.90;99.90;;;;;;5051813;28;20186;-64
2023/02/10 05:46:22;;;;;;;19.47;14.70;;;0.90;99.90;;;;;;5052373;28;20183;-63
2023/02/10 05:48:48;;;;;;;21.27;17.83;;;0.80;99.90;;;;;;5051912;28;20683;-64
2023/02/10 05:51:13;;;;;;;20.07;18.00;;;0.80;99.90;;;;;;5051820;28;20620;-64
2023/02/10 05:53:39;;;;;;;16.37;13.23;;;0.70;99.90;;;;;;5051898;28;20262;-64
2023/02/10 05:56:04;;;;;;;18.57;15.37;;;0.60;99.90;;;;;;5051563;28;20178;-64
2023/02/10 05:58:32;;;;;;;18.93;15.33;;;0.60;99.90;;;;;;5051507;28;20175;-64
2023/02/10 06:00:58;;;;;;;19.13;14.60;;;0.60;99.90;;;;;;5051100;28;20190;-64
2023/02/10 06:03:24;;;;;;;18.27;13.27;;;0.50;99.90;;;;;;5051430;28;20190;-64
2023/02/10 06:05:49;;;;;;;15.50;13.03;;;0.40;99.90;;;;;;5051295;28;20571;-64
2023/02/10 06:08:15;;;;;;;25.80;14.00;;;0.40;96.80;;;;;;5051312;28;20198;-64
2023/02/10 06:10:40;;;;;;;25.03;16.10;;;0.30;94.60;;;;;;5050934;28;20210;-64
2023/02/10 06:13:06;;;;;;;27.63;13.90;;;0.20;90.50;;;;;;5051747;28;20195;-63
2023/02/10 06:15:32;;;;;;;16.00;14.33;;;0.20;97.50;;;;;;5051400;28;20578;-63
2023/02/10 06:17:57;;;;;;;22.57;16.07;;;0.20;99.90;;;;;;5051573;28;20175;-64
2023/02/10 06:20:23;;;;;;;16.23;13.10;;;0.10;99.90;;;;;;5050604;28;20179;-65
2023/02/10 06:22:48;;;;;;;16.57;14.63;;;0.10;99.90;;;;;;5051029;28;20198;-65
2023/02/10 06:25:14;;;;;;;23.47;16.50;;;0.10;99.90;;;;;;5051042;28;20174;-63
2023/02/10 06:27:39;;;;;;;18.47;14.57;;;0.10;99.90;;;;;;5051236;28;20194;-65
2023/02/10 06:30:06;;;;;;;18.90;14.00;;;0.10;99.90;;;;;;5050657;28;20179;-65
2023/02/10 06:32:31;;;;;;;16.57;14.97;;;0.10;99.90;;;;;;5051080;28;20205;-64
2023/02/10 06:34:57;;;;;;;17.20;14.37;;;0.00;99.90;;;;;;5051786;28;20703;-64
2023/02/10 06:37:24;;;;;;;22.67;16.90;;;0.10;99.90;;;;;;5055169;28;20181;-65
2023/02/10 06:39:49;;;;;;;16.53;14.17;;;0.10;99.90;;;;;;5054864;28;20183;-65
2023/02/10 06:42:15;;;;;;;20.87;14.30;;;0.10;99.90;;;;;;5055079;28;20264;-65
2023/02/10 06:44:41;;;;;;;18.07;14.80;;;0.20;99.90;;;;;;5054099;28;20190;-64
2023/02/10 06:47:06;;;;;;;20.30;14.83;;;0.20;99.90;;;;;;5054835;28;20277;-64
2023/02/10 06:49:32;;;;;;;22.87;15.47;;;0.10;99.90;;;;;;5054774;28;20222;-65
2023/02/10 06:51:58;;;;;;;19.57;13.77;;;0.10;99.90;;;;;;5054864;28;20198;-64
2023/02/10 06:54:24;;;;;;;16.70;14.33;;;0.10;99.90;;;;;;5055082;28;20567;-65
2023/02/10 06:56:49;;;;;;;14.50;13.00;;;0.10;99.90;;;;;;5054745;28;20175;-64
2023/02/10 06:59:16;;;;;;;19.70;16.00;;;0.10;99.90;;;;;;5054685;28;20185;-65
2023/02/10 07:01:42;;;;;;;23.93;15.30;;;0.10;99.90;;;;;;5053601;28;20199;-64
2023/02/10 07:04:07;;;;;;;15.67;13.93;;;0.10;99.90;;;;;;5054782;28;20746;-65
2023/02/10 07:06:33;;;;;;;22.07;15.23;;;0.10;99.90;;;;;;5052205;28;20684;-64
2023/02/10 07:08:59;;;;;;;22.33;15.67;;;0.20;99.90;;;;;;5052494;28;20206;-65
2023/02/10 07:11:24;;;;;;;16.27;14.50;;;0.30;99.90;;;;;;5052564;28;20205;-65
2023/02/10 07:13:50;;;;;;;18.07;15.10;;;0.30;99.90;;;;;;5054608;28;20159;-64
2023/02/10 07:16:16;;;;;;;21.83;14.80;;;0.30;99.90;;;;;;5053034;28;20667;-64
2023/02/10 07:18:42;;;;;;;18.47;15.03;;;0.30;99.90;;;;;;5054255;28;20175;-64
2023/02/10 07:21:08;;;;;;;15.63;14.00;;;0.30;99.90;;;;;;5053794;28;20213;-64
2023/02/10 07:23:34;;;;;;;21.43;14.57;;;0.30;99.90;;;;;;5054227;28;20688;-64
2023/02/10 07:25:59;;;;;;;17.43;14.83;;;0.30;99.90;;;;;;5054228;28;20207;-64
2023/02/10 07:28:25;;;;;;;20.93;13.77;;;0.20;99.90;;;;;;5054064;28;20234;-64
2023/02/10 07:30:50;;;;;;;22.03;15.23;;;0.20;99.90;;;;;;5053138;28;20185;-64
2023/02/10 07:33:16;;;;;;;20.43;15.07;;;0.20;99.90;;;;;;5054070;28;20186;-64
2023/02/10 07:35:42;;;;;;;28.30;17.80;;;0.20;99.90;;;;;;5052743;28;20540;-64
2023/02/10 07:38:07;;;;;;;19.87;14.53;;;0.30;99.90;;;;;;5053257;28;20171;-64
2023/02/10 07:40:34;;;;;;;18.63;14.87;;;0.40;99.90;;;;;;5053200;28;20628;-64
2023/02/10 07:42:59;;;;;;;25.53;15.47;;;0.40;99.90;;;;;;5053634;28;20206;-64
2023/02/10 07:45:30;;;;;;;23.20;16.00;;;0.40;99.90;;;;;;5052811;28;20211;-64
2023/02/10 07:47:59;;;;;;;30.60;16.47;;;0.50;99.90;;;;;;5054026;28;20321;-64
2023/02/10 07:50:25;;;;;;;21.47;14.47;;;0.50;99.90;;;;;;5052780;28;20655;-64
2023/02/10 07:52:51;;;;;;;21.03;16.67;;;0.50;99.90;;;;;;5053063;28;20286;-64
2023/02/10 07:55:16;;;;;;;18.80;15.93;;;0.60;99.90;;;;;;5053517;28;20245;-63
2023/02/10 07:57:42;;;;;;;21.17;16.00;;;0.60;99.90;;;;;;5053518;28;20187;-64
2023/02/10 08:00:09;;;;;;;22.93;15.13;;;0.70;99.90;;;;;;5048410;28;20170;-64
2023/02/10 08:02:34;;;;;;;16.47;14.67;;;0.80;99.90;;;;;;5053217;28;20283;-64
2023/02/10 08:05:00;;;;;;;23.87;15.80;;;0.90;99.90;;;;;;5053440;28;20263;-64
2023/02/10 08:07:25;;;;;;;20.43;15.17;;;1.10;99.90;;;;;;5053233;28;20202;-64
2023/02/10 08:09:51;;;;;;;30.70;17.13;;;1.30;99.90;;;;;;5053275;28;20332;-64
2023/02/10 08:12:17;;;;;;;23.67;17.33;;;1.50;99.90;;;;;;5052962;28;20292;-64
2023/02/10 08:14:42;;;;;;;20.70;16.57;;;1.80;99.90;;;;;;5053275;28;20250;-64
2023/02/10 08:17:08;;;;;;;29.17;17.77;;;2.00;99.90;;;;;;5053076;28;20175;-64
2023/02/10 08:19:36;;;;;;;36.13;17.50;;;2.30;99.90;;;;;;5053050;28;20589;-64
2023/02/10 08:22:04;;;;;;;26.03;17.83;;;2.60;99.90;;;;;;5053077;28;20277;-64
2023/02/10 08:24:30;;;;;;;26.77;21.13;;;3.00;99.90;;;;;;5052977;28;20183;-64
2023/02/10 08:26:56;;;;;;;28.87;18.03;;;3.60;99.90;;;;;;5052890;28;20224;-64
2023/02/10 08:29:21;;;;;;;38.13;19.43;;;4.00;99.90;;;;;;5052715;28;20252;-65
2023/02/10 08:31:51;;;;;;;32.83;19.00;;;4.40;99.90;;;;;;5052735;28;20217;-64
2023/02/10 08:34:21;;;;;;;29.33;18.00;;;4.70;99.90;;;;;;5052892;28;20202;-64
2023/02/10 08:36:47;;;;;;;33.00;18.83;;;5.10;99.90;;;;;;5052654;28;20174;-64
2023/02/10 08:39:14;;;;;;;29.63;17.03;;;5.40;99.90;;;;;;5052545;28;20230;-64
2023/02/10 08:41:40;;;;;;;35.17;19.37;;;5.70;99.90;;;;;;5052869;28;20199;-64
2023/02/10 08:44:06;;;;;;;25.67;18.40;;;6.00;99.90;;;;;;5052669;28;20175;-64
2023/02/10 08:46:32;;;;;;;32.90;17.70;;;6.20;99.90;;;;;;5052850;28;20178;-64
2023/02/10 08:49:00;;;;;;;28.33;17.67;;;6.50;99.90;;;;;;5052365;28;20302;-64
2023/02/10 08:51:27;;;;;;;27.20;17.13;;;6.60;34.20;;;;;;5052165;28;20181;-64
2023/02/10 08:53:52;;;;;;;27.00;16.43;;;6.90;15.80;;;;;;5052628;28;20167;-64
2023/02/10 08:56:18;;;;;;;29.03;18.00;;;7.20;1.00;;;;;;5052573;28;20175;-64
2023/02/10 08:58:45;;;;;;;24.97;16.97;;;7.50;1.00;;;;;;5051599;28;20203;-64
2023/02/10 09:01:14;;;;;;;20.43;15.37;;;7.70;1.00;;;;;;5051945;28;20662;-64
2023/02/10 09:03:40;;;;;;;26.47;18.07;;;8.10;99.90;;;;;;5052412;28;20179;-65
2023/02/10 09:06:14;;;;;;;27.43;16.97;;;8.60;99.90;;;;;;5052279;28;20179;-64
2023/02/10 09:08:41;;;;;;;23.50;16.70;;;9.10;1.00;;;;;;5052267;28;20628;-64
2023/02/10 09:11:08;;;;;;;17.93;14.13;;;9.60;99.90;;;;;;5051959;28;20178;-64
2023/02/10 09:13:33;;;;;;;21.10;13.77;;;10.00;99.90;;;;;;5049871;28;20703;-64
2023/02/10 09:15:59;;;;;;;17.57;13.90;;;10.40;1.00;;;;;;5052042;28;20179;-64
2023/02/10 09:18:24;;;;;;;20.30;13.33;;;10.30;1.00;;;;;;5052045;28;20206;-64
2023/02/10 09:20:50;;;;;;;20.40;14.60;;;10.30;1.00;;;;;;5051636;28;20659;-64
2023/02/10 09:23:16;;;;;;;24.40;14.47;;;10.20;1.00;;;;;;5052161;28;20237;-65
2023/02/10 09:25:41;;;;;;;20.77;13.57;;;10.20;1.00;;;;;;5051900;28;20179;-64
2023/02/10 09:28:08;;;;;;;22.07;13.67;;;10.20;1.00;;;;;;5052054;28;20199;-64
2023/02/10 09:30:34;;;;;;;21.50;13.87;;;10.40;1.00;;;;;;5051323;28;20170;-64
2023/02/10 09:32:59;;;;;;;21.00;14.20;;;10.60;1.00;;;;;;5051819;28;20191;-64
2023/02/10 09:35:25;;;;;;;20.43;13.50;;;10.60;1.00;;;;;;5051487;28;20224;-64
2023/02/10 09:37:51;;;;;;;22.23;12.50;;;10.60;1.00;;;;;;5051990;28;20171;-64
2023/02/10 09:40:27;;;;;;;21.50;13.63;;;10.40;1.00;;;;;;5051291;28;20572;-64
2023/02/10 09:43:21;;;;;;;24.97;14.10;;;10.40;1.00;;;;;;5051677;28;20205;-64
2023/02/10 09:45:50;;;;;;;21.73;13.80;;;10.50;1.00;;;;;;5049727;28;20598;-64
2023/02/10 09:48:50;;;;;;;21.60;13.33;;;10.50;1.00;;;;;;5051384;28;20224;-64
2023/02/10 09:51:40;;;;;;;22.83;12.97;;;10.40;1.00;;;;;;5050829;28;20517;-64
2023/02/10 09:54:10;;;;;;;18.57;12.17;;;10.10;1.00;;;;;;5031810;28;20163;-64
2023/02/10 09:56:38;;;;;;;17.50;12.90;;;10.00;1.00;;;;;;5031786;28;20237;-64
2023/02/10 09:59:10;;;;;;;21.90;14.37;;;9.60;1.00;;;;;;5031744;28;20182;-64
2023/02/10 10:01:50;;;;;;;31.17;16.30;;;9.30;1.00;;;;;;5046567;28;20633;-64
2023/02/10 10:04:18;;;;;;;18.80;13.00;;;9.40;1.00;;;;;;5051483;28;20288;-64
2023/02/10 10:07:11;;;;;;;23.27;13.67;;;9.70;1.00;;;;;;5051148;28;20174;-64
2023/02/10 10:09:42;;;;;;;18.77;12.90;;;10.20;1.00;;;;;;5050559;28;20182;-65
2023/02/10 10:12:13;;;;;;;20.73;13.17;;;10.50;1.00;;;;;;5051448;28;20195;-65
2023/02/10 10:14:41;;;;;;;17.07;12.80;;;10.90;1.00;;;;;;5051124;28;20257;-65
2023/02/10 10:17:40;;;;;;;24.60;12.60;;;11.30;1.00;;;;;;5051376;28;20205;-64
2023/02/10 10:20:21;;;;;;;20.23;13.73;;;11.30;1.00;;;;;;5049951;28;20256;-65
2023/02/10 10:23:05;;;;;;;19.00;12.50;;;10.90;1.00;;;;;;5051234;28;20195;-64
2023/02/10 10:25:53;;;;;;;17.90;13.37;;;10.50;1.00;;;;;;5051480;28;20198;-64
2023/02/10 10:28:43;;;;;;;18.43;13.43;;;10.30;99.90;;;;;;5050962;28;20194;-64
2023/02/10 10:31:17;;;;;;;36.97;17.37;;;10.10;99.90;;;;;;5051249;28;20170;-64
2023/02/10 10:33:51;;;;;;;27.00;14.87;;;10.10;1.00;;;;;;5050960;28;20526;-64
2023/02/10 10:36:37;;;;;;;23.07;14.40;;;10.40;1.00;;;;;;5051188;28;20727;-64
2023/02/10 10:39:17;;;;;;;25.53;14.43;;;10.80;1.00;;;;;;5050672;28;20266;-64
2023/02/10 10:41:44;;;;;;;19.83;12.23;;;11.10;1.00;;;;;;5050872;28;20212;-64
2023/02/10 10:44:14;;;;;;;19.17;13.40;;;11.30;99.90;;;;;;5050980;28;20178;-64
2023/02/10 10:46:49;;;;;;;20.07;13.17;;;11.40;99.90;;;;;;5050709;28;20186;-64
2023/02/10 10:49:15;;;;;;;20.07;13.20;;;11.50;99.90;;;;;;5050257;28;20745;-64
2023/02/10 10:51:41;;;;;;;20.87;13.87;;;11.50;99.90;;;;;;5048381;28;20696;-64
2023/02/10 10:54:14;;;;;;;24.97;14.30;;;11.60;99.90;;;;;;5050913;28;20185;-64
2023/02/10 10:56:48;;;;;;;24.60;14.97;;;11.50;99.90;;;;;;5050589;28;20723;-64
2023/02/10 10:59:53;;;;;;;22.63;13.67;;;11.50;99.90;;;;;;5050438;28;20178;-64
2023/02/10 11:02:22;;;;;;;24.73;15.10;;;11.60;99.90;;;;;;5050202;28;20574;-64
2023/02/10 11:05:13;;;;;;;19.87;13.30;;;11.50;99.90;;;;;;5050722;28;20193;-64
2023/02/10 11:07:40;;;;;;;21.97;14.37;;;11.30;99.90;;;;;;5050527;28;20678;-65
2023/02/10 11:10:19;;;;;;;19.90;13.90;;;11.40;99.90;;;;;;5053641;28;20171;-64
2023/02/10 11:12:46;;;;;;;21.57;13.47;;;11.50;99.90;;;;;;5050483;28;20671;-64
2023/02/10 11:15:40;;;;;;;21.17;13.07;;;11.60;99.90;;;;;;5050912;28;20186;-64
2023/02/10 11:18:15;;;;;;;22.60;13.90;;;12.00;99.90;;;;;;5029666;28;20199;-64
2023/02/10 11:21:03;;;;;;;20.23;12.60;;;12.10;99.90;;;;;;5031586;28;20185;-64
2023/02/10 11:23:29;;;;;;;22.43;14.07;;;12.20;99.90;;;;;;5054114;28;20221;-64
2023/02/10 11:26:01;;;;;;;17.77;12.80;;;12.30;99.90;;;;;;5055546;28;20707;-65
2023/02/10 11:28:30;;;;;;;19.37;13.10;;;12.50;99.90;;;;;;5054220;28;20566;-65
2023/02/10 11:31:00;;;;;;;15.53;13.10;;;12.50;99.90;;;;;;5053656;28;20167;-65
2023/02/10 11:33:30;;;;;;;17.67;12.50;;;12.30;99.90;;;;;;5054102;28;20183;-64
2023/02/10 11:36:07;;;;;;;23.63;13.27;;;12.40;99.90;;;;;;5050562;28;20175;-64
2023/02/10 11:38:34;;;;;;;19.93;13.73;;;12.60;99.90;;;;;;5034348;28;20605;-64
2023/02/10 11:41:08;;;;;;;20.30;14.03;;;12.70;99.90;;;;;;5038677;28;20660;-64
2023/02/10 11:43:41;;;;;;;20.90;12.50;;;12.60;99.90;;;;;;5054082;28;20648;-64
2023/02/10 11:46:17;;;;;;;18.97;13.33;;;12.30;99.90;;;;;;5053462;28;20213;-64
2023/02/10 11:49:02;;;;;;;19.47;13.83;;;12.10;99.90;;;;;;5053909;28;20249;-64
2023/02/10 11:51:29;;;;;;;21.97;15.07;;;12.00;99.90;;;;;;5053464;28;20171;-64
2023/02/10 11:53:56;;;;;;;19.40;12.87;;;11.90;99.90;;;;;;5053877;28;20177;-64
2023/02/10 12:00:03;;;;;;;20.47;13.43;;;11.80;99.90;;;;;;5053257;28;20667;-64
2023/02/10 12:02:43;;;;;;;21.83;13.60;;;12.00;99.90;;;;;;5053528;28;20276;-64
2023/02/10 12:05:16;;;;;;;19.97;12.23;;;12.00;99.90;;;;;;5053784;28;20221;-64
2023/02/10 12:07:44;;;;;;;22.07;12.87;;;11.80;99.90;;;;;;5053499;28;20205;-64
2023/02/10 12:10:15;;;;;;;18.33;13.33;;;11.50;99.90;;;;;;5052980;28;20214;-64
2023/02/10 12:12:54;;;;;;;14.53;12.60;;;11.40;99.90;;;;;;5053348;28;20190;-64
2023/02/10 12:15:45;;;;;;;16.17;13.17;;;11.10;99.90;;;;;;5053243;28;20640;-64
2023/02/10 12:18:14;;;;;;;22.20;13.60;;;10.80;99.90;;;;;;5053699;28;20175;-64
2023/02/10 12:21:13;;;;;;;17.23;13.93;;;10.60;99.90;;;;;;5052644;28;20273;-64
2023/02/10 12:24:12;;;;;;;17.23;14.03;;;10.40;99.90;;;;;;5052904;28;20186;-64
2023/02/10 12:26:55;;;;;;;18.53;12.73;;;10.40;99.90;;;;;;5053357;28;20166;-64
2023/02/10 12:29:47;;;;;;;19.50;13.73;;;10.30;99.90;;;;;;5052431;28;20562;-64
2023/02/10 12:32:42;;;;;;;18.30;13.33;;;10.00;99.90;;;;;;5053247;28;20716;-64
2023/02/10 12:35:29;;;;;;;19.20;14.17;;;9.70;99.90;;;;;;5053098;28;20248;-64
2023/02/10 12:38:00;;;;;;;13.73;11.43;;;9.40;99.90;;;;;;5052939;28;20678;-64
2023/02/10 12:40:51;;;;;;;20.97;11.97;;;9.40;99.90;;;;;;5052585;28;20668;-64
2023/02/10 12:43:31;;;;;;;17.83;11.83;;;9.20;99.90;;;;;;5052593;28;20721;-64
2023/02/10 12:46:00;;;;;;;12.63;10.53;;;9.10;99.90;;;;;;5052832;28;20538;-64
2023/02/10 12:48:36;;;;;;;12.40;10.53;;;9.10;99.90;;;;;;5052345;28;20290;-64
2023/02/10 12:51:22;;;;;;;15.20;12.90;;;8.90;99.90;;;;;;5052871;28;20173;-64
2023/02/10 12:54:09;;;;;;;13.63;11.27;;;9.00;99.90;;;;;;5052660;28;20175;-64
2023/02/10 12:56:42;;;;;;;12.40;10.27;;;9.00;99.90;;;;;;5030742;28;20660;-64
2023/02/10 12:59:16;;;;;;;10.50;9.07;;;9.00;99.90;;;;;;5052148;28;20174;-64
2023/02/10 13:02:15;;;;;;;10.87;9.67;;;9.10;99.90;;;;;;5050420;28;20221;-64